createdAt,value
2017-09-14T00:00:46.795Z,95761.00
2017-09-14T00:03:14.647Z,95766.30
2017-09-14T00:05:42.268Z,95763.18
2017-09-14T00:08:09.912Z,95757.05
2017-09-14T00:10:38.383Z,95758.45
2017-09-14T00:13:05.957Z,95761.73
2017-09-14T00:15:33.533Z,95759.56
2017-09-14T00:18:01.135Z,95760.61
2017-09-14T00:20:28.682Z,95753.88
2017-09-14T00:22:56.298Z,95756.92
2017-09-14T00:25:23.917Z,95761.59
2017-09-14T00:27:51.524Z,95755.05
2017-09-14T00:30:19.580Z,95754.63
2017-09-14T00:32:47.282Z,95751.66
2017-09-14T00:35:15.128Z,95757.63
2017-09-14T00:37:42.736Z,95759.17
2017-09-14T00:40:10.390Z,95759.64
2017-09-14T00:42:38.155Z,95751.70
2017-09-14T00:45:05.795Z,95751.40
2017-09-14T00:47:33.341Z,95753.23
2017-09-14T00:50:01.127Z,95739.87
2017-09-14T00:52:28.770Z,95739.39
2017-09-14T00:54:56.373Z,95750.98
2017-09-14T00:57:24.215Z,95750.50
2017-09-14T00:59:52.129Z,95748.16
2017-09-14T01:02:19.709Z,95749.66
2017-09-14T01:04:47.348Z,95747.29
2017-09-14T01:07:14.927Z,95750.94
2017-09-14T01:09:42.539Z,95750.88
2017-09-14T01:12:10.118Z,95756.44
2017-09-14T01:14:37.724Z,95762.71
2017-09-14T01:17:05.514Z,95761.80
2017-09-14T01:19:33.109Z,95755.87
2017-09-14T01:22:00.747Z,95769.38
2017-09-14T01:24:28.391Z,95765.03
2017-09-14T01:26:56.008Z,95764.25
2017-09-14T01:29:23.835Z,95755.78
2017-09-14T01:31:51.553Z,95750.47
2017-09-14T01:34:19.183Z,95753.23
2017-09-14T01:36:46.834Z,95750.28
2017-09-14T01:39:14.499Z,95755.76
2017-09-14T01:41:42.095Z,95758.77
2017-09-14T01:44:09.710Z,95753.06
2017-09-14T01:46:37.317Z,95754.75
2017-09-14T01:49:04.876Z,95756.47
2017-09-14T01:51:32.528Z,95754.95
2017-09-14T01:54:00.140Z,95759.05
2017-09-14T01:56:27.793Z,95757.52
2017-09-14T01:58:55.378Z,95760.45
2017-09-14T02:01:23.191Z,95757.45
2017-09-14T02:03:51.728Z,95761.45
2017-09-14T02:06:19.596Z,95765.95
2017-09-14T02:08:47.229Z,95768.45
2017-09-14T02:11:14.765Z,95761.23
2017-09-14T02:13:42.326Z,95768.63
2017-09-14T02:16:09.915Z,95759.27
2017-09-14T02:18:37.687Z,95763.64
2017-09-14T02:21:05.278Z,95764.05
2017-09-14T02:23:32.881Z,95770.87
2017-09-14T02:26:00.462Z,95768.02
2017-09-14T02:28:28.058Z,95769.22
2017-09-14T02:30:55.706Z,95760.27
2017-09-14T02:33:23.299Z,95754.91
2017-09-14T02:35:51.069Z,95762.00
2017-09-14T02:38:18.785Z,95756.67
2017-09-14T02:40:46.324Z,95757.52
2017-09-14T02:43:13.864Z,95746.58
2017-09-14T02:45:41.435Z,95752.68
2017-09-14T02:48:09.100Z,95748.55
2017-09-14T02:50:36.870Z,95749.93
2017-09-14T02:53:04.463Z,95739.70
2017-09-14T02:55:32.006Z,95746.98
2017-09-14T02:57:59.541Z,95744.84
2017-09-14T03:00:27.426Z,95738.01
2017-09-14T03:02:55.032Z,95743.59
2017-09-14T03:05:22.625Z,95740.10
2017-09-14T03:07:50.234Z,95746.16
2017-09-14T03:10:17.814Z,95740.81
2017-09-14T03:12:45.355Z,95738.35
2017-09-14T03:15:12.906Z,95744.84
2017-09-14T03:17:40.514Z,95754.87
2017-09-14T03:20:08.045Z,95753.45
2017-09-14T03:22:35.652Z,95746.66
2017-09-14T03:25:03.183Z,95746.55
2017-09-14T03:27:30.755Z,95754.17
2017-09-14T03:29:58.344Z,95754.42
2017-09-14T03:32:25.986Z,95756.55
2017-09-14T03:34:53.554Z,95750.88
2017-09-14T03:37:21.117Z,95751.92
2017-09-14T03:39:48.677Z,95748.83
2017-09-14T03:42:16.241Z,95758.88
2017-09-14T03:44:43.764Z,95759.48
2017-09-14T03:47:11.434Z,95761.13
2017-09-14T03:49:39.086Z,95754.94
2017-09-14T03:52:07.228Z,95757.42
2017-09-14T03:54:34.793Z,95757.87
2017-09-14T03:57:11.721Z,95759.48
2017-09-14T03:59:39.394Z,95750.45
2017-09-14T04:02:07.054Z,95761.64
2017-09-14T04:04:36.073Z,95752.91
2017-09-14T04:07:03.646Z,95761.05
2017-09-14T04:09:32.450Z,95759.35
2017-09-14T04:12:00.127Z,95758.13
2017-09-14T04:14:27.893Z,95758.81
2017-09-14T04:16:57.611Z,95759.30
2017-09-14T04:19:25.267Z,95759.42
2017-09-14T04:21:52.916Z,95759.83
2017-09-14T04:28:14.287Z,95745.03
2017-09-14T04:30:42.513Z,95751.83
2017-09-14T04:33:10.135Z,95749.08
2017-09-14T04:35:38.035Z,95752.88
2017-09-14T04:38:05.724Z,95746.27
2017-09-14T04:40:34.125Z,95743.88
2017-09-14T04:43:01.782Z,95750.62
2017-09-14T04:45:29.432Z,95744.34
2017-09-14T04:47:57.063Z,95746.25
2017-09-14T04:50:24.777Z,95743.77
2017-09-14T04:53:31.421Z,95746.86
2017-09-14T04:55:59.235Z,95748.06
2017-09-14T04:58:26.790Z,95750.42
2017-09-14T05:00:54.371Z,95736.58
2017-09-14T05:03:22.001Z,95747.33
2017-09-14T05:05:49.561Z,95746.61
2017-09-14T05:08:17.160Z,95742.09
2017-09-14T05:10:44.776Z,95741.48
2017-09-14T05:13:12.391Z,95741.38
2017-09-14T05:15:40.017Z,95737.12
2017-09-14T05:18:07.662Z,95738.14
2017-09-14T05:20:35.225Z,95740.44
2017-09-14T05:23:02.834Z,95736.07
2017-09-14T05:25:30.590Z,95727.80
2017-09-14T05:27:58.406Z,95736.59
2017-09-14T05:30:26.152Z,95729.73
2017-09-14T05:32:53.994Z,95734.16
2017-09-14T05:35:21.767Z,95731.55
2017-09-14T05:37:49.327Z,95726.36
2017-09-14T05:40:16.854Z,95728.54
2017-09-14T05:42:44.442Z,95721.25
2017-09-14T05:45:12.029Z,95727.90
2017-09-14T05:47:39.719Z,95728.25
2017-09-14T05:50:07.383Z,95722.87
2017-09-14T05:52:34.977Z,95714.55
2017-09-14T05:55:02.614Z,95716.58
2017-09-14T05:57:30.140Z,95714.64
2017-09-14T05:59:57.830Z,95705.20
2017-09-14T06:02:25.991Z,95701.32
2017-09-14T06:04:53.773Z,95705.89
2017-09-14T06:07:21.326Z,95704.73
2017-09-14T06:09:48.970Z,95706.33
2017-09-14T06:12:16.550Z,95708.85
2017-09-14T06:14:44.075Z,95707.44
2017-09-14T06:17:11.767Z,95707.55
2017-09-14T06:19:39.377Z,95707.23
2017-09-14T06:22:07.075Z,95705.59
2017-09-14T06:24:34.662Z,95708.83
2017-09-14T06:27:02.271Z,95702.81
2017-09-14T06:29:29.791Z,95710.09
2017-09-14T06:31:57.374Z,95712.25
2017-09-14T06:34:24.889Z,95709.60
2017-09-14T06:36:52.466Z,95708.44
2017-09-14T06:39:23.539Z,95708.87
2017-09-14T06:41:51.319Z,95709.02
2017-09-14T06:44:26.044Z,95705.80
2017-09-14T06:46:53.558Z,95714.78
2017-09-14T06:49:21.311Z,95709.70
2017-09-14T06:52:04.501Z,95617.98
2017-09-14T06:54:38.833Z,95712.45
2017-09-14T06:57:07.706Z,95709.98
2017-09-14T06:59:35.307Z,95707.34
2017-09-14T07:02:40.439Z,95711.95
2017-09-14T07:05:08.229Z,95713.67
2017-09-14T07:07:43.827Z,95708.25
2017-09-14T07:10:21.407Z,95711.73
2017-09-14T07:12:48.993Z,95714.91
2017-09-14T07:21:02.160Z,95703.96
2017-09-14T07:23:30.618Z,95705.42
2017-09-14T07:26:00.650Z,95707.52
2017-09-14T07:28:35.948Z,95705.13
2017-09-14T07:31:03.799Z,95704.63
2017-09-14T07:33:31.589Z,95695.50
2017-09-14T07:35:59.121Z,95698.55
2017-09-14T07:38:26.702Z,95698.41
2017-09-14T07:40:54.236Z,95690.06
2017-09-14T07:43:22.044Z,95693.66
2017-09-14T07:45:49.586Z,95690.29
2017-09-14T07:48:17.137Z,95690.74
2017-09-14T07:50:44.972Z,95686.02
2017-09-14T07:53:12.557Z,95680.30
2017-09-14T07:55:40.099Z,95690.14
2017-09-14T07:58:07.632Z,95683.66
2017-09-14T08:00:35.194Z,95682.71
2017-09-14T08:03:02.713Z,95682.00
2017-09-14T08:05:30.238Z,95675.16
2017-09-14T08:07:57.827Z,95670.86
2017-09-14T08:10:25.353Z,95669.86
2017-09-14T08:12:52.953Z,95664.34
2017-09-14T08:15:20.542Z,95672.16
2017-09-14T08:17:48.327Z,95661.00
2017-09-14T08:20:15.945Z,95664.87
2017-09-14T08:22:44.436Z,95654.88
2017-09-14T08:25:12.086Z,95654.95
2017-09-14T08:27:39.910Z,95646.05
2017-09-14T08:30:07.607Z,95647.14
2017-09-14T08:32:35.146Z,95646.23
2017-09-14T08:35:02.729Z,95642.76
2017-09-14T08:37:30.321Z,95645.59
2017-09-14T08:39:57.873Z,95630.87
2017-09-14T08:42:25.498Z,95639.28
2017-09-14T08:44:53.174Z,95630.67
2017-09-14T08:47:20.869Z,95618.16
2017-09-14T08:49:48.507Z,95610.77
2017-09-14T08:52:16.114Z,95607.14
2017-09-14T08:54:43.718Z,95607.84
2017-09-14T08:57:11.283Z,95598.19
2017-09-14T08:59:38.858Z,95598.14
2017-09-14T09:02:06.446Z,95590.39
2017-09-14T09:04:34.167Z,95579.84
2017-09-14T09:07:01.974Z,95586.94
2017-09-14T09:09:29.647Z,95575.05
2017-09-14T09:11:58.180Z,95575.53
2017-09-14T09:14:25.892Z,95564.17
2017-09-14T09:16:53.481Z,95564.79
2017-09-14T09:19:21.864Z,95558.58
2017-09-14T09:21:49.724Z,95553.62
2017-09-14T09:24:17.347Z,95556.81
2017-09-14T09:26:45.517Z,95549.84
2017-09-14T09:29:13.268Z,95547.78
2017-09-14T09:31:40.867Z,95538.41
2017-09-14T09:34:08.682Z,95535.04
2017-09-14T09:36:36.200Z,95530.28
2017-09-14T09:39:03.850Z,95532.76
2017-09-14T09:41:31.474Z,95528.58
2017-09-14T09:43:59.021Z,95517.31
2017-09-14T09:46:26.635Z,95517.05
2017-09-14T09:48:54.202Z,95506.25
2017-09-14T09:51:21.739Z,95502.08
2017-09-14T09:53:49.335Z,95499.64
2017-09-14T09:56:17.106Z,95493.29
2017-09-14T09:58:44.680Z,95491.41
2017-09-14T10:01:12.294Z,95484.88
2017-09-14T10:03:39.844Z,95486.66
2017-09-14T10:06:07.382Z,95478.24
2017-09-14T10:08:35.153Z,95463.06
2017-09-14T10:11:02.718Z,95466.06
2017-09-14T10:13:30.382Z,95461.67
2017-09-14T10:15:58.007Z,95458.03
2017-09-14T10:18:25.553Z,95451.46
2017-09-14T10:20:53.099Z,95444.59
2017-09-14T10:23:20.769Z,95441.02
2017-09-14T10:25:48.574Z,95441.79
2017-09-14T10:28:16.146Z,95432.41
2017-09-14T10:30:43.746Z,95428.56
2017-09-14T10:33:12.141Z,95424.78
2017-09-14T10:35:39.697Z,95418.23
2017-09-14T10:38:07.702Z,95425.06
2017-09-14T10:40:35.487Z,95414.38
2017-09-14T10:43:03.047Z,95414.80
2017-09-14T10:45:31.518Z,95415.95
2017-09-14T10:47:59.287Z,95410.23
2017-09-14T10:50:27.036Z,95406.80
2017-09-14T10:52:54.674Z,95397.17
2017-09-14T10:55:22.234Z,95401.38
2017-09-14T10:57:49.798Z,95388.64
2017-09-14T11:00:19.282Z,95393.22
2017-09-14T11:02:46.879Z,95378.59
2017-09-14T11:05:14.897Z,95384.70
2017-09-14T11:07:42.470Z,95367.91
2017-09-14T11:10:19.080Z,95371.31
2017-09-14T11:12:46.722Z,95356.92
2017-09-14T11:15:14.321Z,95360.00
2017-09-14T11:17:41.948Z,95359.20
2017-09-14T11:20:09.586Z,95354.24
2017-09-14T11:22:37.143Z,95342.73
2017-09-14T11:25:04.712Z,95346.67
2017-09-14T11:27:32.282Z,95339.23
2017-09-14T11:30:05.637Z,95336.94
2017-09-14T11:32:33.392Z,95334.23
2017-09-14T11:35:01.143Z,95332.34
2017-09-14T11:37:32.655Z,95328.18
2017-09-14T11:40:00.205Z,95317.22
2017-09-14T11:42:27.767Z,95310.92
2017-09-14T11:44:55.334Z,95306.66
2017-09-14T11:47:25.748Z,95304.59
2017-09-14T11:49:53.590Z,95301.83
2017-09-14T11:52:21.208Z,95299.98
2017-09-14T11:54:49.011Z,95296.25
2017-09-14T11:57:19.391Z,95294.71
2017-09-14T11:59:47.043Z,95286.81
2017-09-14T12:02:14.654Z,95280.42
2017-09-14T12:04:43.214Z,95273.44
2017-09-14T12:07:10.973Z,95275.19
2017-09-14T12:09:41.739Z,95264.97
2017-09-14T12:12:14.443Z,95257.73
2017-09-14T12:14:42.892Z,95248.95
2017-09-14T12:17:14.706Z,95244.30
2017-09-14T12:19:42.285Z,95241.64
2017-09-14T12:22:12.858Z,95238.89
2017-09-14T12:24:41.181Z,95235.42
2017-09-14T12:27:09.827Z,95231.91
2017-09-14T12:29:39.093Z,95222.39
2017-09-14T12:32:06.708Z,95226.05
2017-09-14T12:34:34.261Z,95215.61
2017-09-14T12:37:04.731Z,95216.96
2017-09-14T12:39:32.387Z,95210.34
2017-09-14T12:41:59.983Z,95209.20
2017-09-14T12:44:27.614Z,95207.60
2017-09-14T12:46:59.150Z,95194.41
2017-09-14T12:49:27.508Z,95192.02
2017-09-14T12:51:55.148Z,95193.38
2017-09-14T12:54:22.739Z,95189.25
2017-09-14T12:56:51.021Z,95178.98
2017-09-14T12:59:18.631Z,95180.36
2017-09-14T13:01:46.305Z,95177.98
2017-09-14T13:04:13.842Z,95168.14
2017-09-14T13:06:41.516Z,95167.43
2017-09-14T13:09:09.217Z,95164.03
2017-09-14T13:11:37.056Z,95169.48
2017-09-14T13:14:04.770Z,95164.50
2017-09-14T13:16:32.475Z,95159.91
2017-09-14T13:19:00.118Z,95154.11
2017-09-14T13:21:27.884Z,95149.69
2017-09-14T13:23:55.608Z,95146.84
2017-09-14T13:26:23.155Z,95144.17
2017-09-14T13:28:50.830Z,95137.70
2017-09-14T13:31:18.468Z,95129.91
2017-09-14T13:33:46.371Z,95125.60
2017-09-14T13:36:13.891Z,95126.95
2017-09-14T13:38:41.521Z,95122.63
2017-09-14T13:41:09.424Z,95120.23
2017-09-14T13:43:37.167Z,95121.16
2017-09-14T13:46:04.786Z,95108.37
2017-09-14T13:48:32.361Z,95107.18
2017-09-14T13:51:00.126Z,95105.33
2017-09-14T13:53:27.738Z,95110.54
2017-09-14T13:55:55.261Z,95107.43
2017-09-14T13:58:22.910Z,95102.31
2017-09-14T14:00:50.547Z,95101.32
2017-09-14T14:03:18.134Z,95098.91
2017-09-14T14:05:45.708Z,95099.31
2017-09-14T14:08:13.396Z,95086.95
2017-09-14T14:10:40.988Z,95085.73
2017-09-14T14:13:08.932Z,95087.20
2017-09-14T14:15:36.572Z,95085.42
2017-09-14T14:18:04.376Z,95073.17
2017-09-14T14:20:32.115Z,95075.33
2017-09-14T14:23:00.704Z,95077.03
2017-09-14T14:25:28.237Z,95070.13
2017-09-14T14:27:56.430Z,95073.66
2017-09-14T14:30:24.173Z,95064.16
2017-09-14T14:32:51.763Z,95061.91
2017-09-14T14:35:19.541Z,95068.88
2017-09-14T14:37:47.153Z,95064.39
2017-09-14T14:40:14.864Z,95050.94
2017-09-14T14:42:42.622Z,95062.77
2017-09-14T14:45:10.255Z,95049.22
2017-09-14T14:47:38.121Z,95044.67
2017-09-14T14:50:05.655Z,95042.05
2017-09-14T14:52:33.366Z,95051.62
2017-09-14T14:55:00.923Z,95044.97
2017-09-14T14:57:28.505Z,95048.86
2017-09-14T14:59:56.180Z,95039.16
2017-09-14T15:02:23.772Z,95044.75
2017-09-14T15:04:51.432Z,95043.97
2017-09-14T15:07:19.245Z,95041.97
2017-09-14T15:09:46.876Z,95040.04
2017-09-14T15:12:14.474Z,95037.86
2017-09-14T15:14:42.095Z,95036.69
2017-09-14T15:17:09.707Z,95036.17
2017-09-14T15:19:37.903Z,95036.00
2017-09-14T15:22:05.506Z,95036.41
2017-09-14T15:24:33.075Z,95032.37
2017-09-14T15:27:00.676Z,95031.22
2017-09-14T15:29:28.256Z,95032.70
2017-09-14T15:31:56.067Z,95033.02
2017-09-14T15:34:23.654Z,95038.80
2017-09-14T15:36:51.233Z,95033.76
2017-09-14T15:39:24.364Z,95031.76
2017-09-14T15:41:51.916Z,95030.14
2017-09-14T15:44:25.090Z,95028.59
2017-09-14T15:46:52.643Z,95027.67
2017-09-14T15:49:25.853Z,95027.97
2017-09-14T15:51:53.478Z,95025.41
2017-09-14T15:54:20.996Z,95033.73
2017-09-14T15:56:51.019Z,95029.54
2017-09-14T15:59:18.714Z,95022.03
2017-09-14T16:01:46.384Z,95031.87
2017-09-14T16:04:14.014Z,95030.16
2017-09-14T16:06:41.611Z,95022.48
2017-09-14T16:09:09.912Z,95023.69
2017-09-14T16:11:37.543Z,95013.46
2017-09-14T16:14:05.588Z,95019.01
2017-09-14T16:16:33.257Z,95023.95
2017-09-14T16:19:00.953Z,95021.66
2017-09-14T16:21:28.606Z,95019.25
2017-09-14T16:23:56.718Z,95016.39
2017-09-14T16:26:24.359Z,95021.47
2017-09-14T16:28:52.002Z,95019.52
2017-09-14T16:31:20.472Z,95016.65
2017-09-14T16:33:48.150Z,95013.45
2017-09-14T16:36:16.217Z,95014.86
2017-09-14T16:38:43.873Z,95010.11
2017-09-14T16:41:13.319Z,95010.69
2017-09-14T16:43:40.936Z,95012.33
2017-09-14T16:46:12.168Z,95014.05
2017-09-14T16:48:40.020Z,95015.22
2017-09-14T16:51:07.709Z,95015.66
2017-09-14T16:53:35.365Z,95011.19
2017-09-14T16:56:03.127Z,95020.00
2017-09-14T16:58:30.762Z,95017.45
2017-09-14T17:00:58.394Z,95022.08
2017-09-14T17:03:29.678Z,95015.96
2017-09-14T17:05:57.339Z,95021.66
2017-09-14T17:08:25.678Z,95031.28
2017-09-14T17:10:54.309Z,95027.66
2017-09-14T17:13:24.671Z,95035.25
2017-09-14T17:15:56.918Z,95033.01
2017-09-14T17:18:26.108Z,95041.34
2017-09-14T17:20:57.067Z,95039.72
2017-09-14T17:23:25.714Z,95034.17
2017-09-14T17:25:53.288Z,95037.23
2017-09-14T17:28:20.897Z,95036.55
2017-09-14T17:30:50.391Z,95045.72
2017-09-14T17:33:17.952Z,95046.31
2017-09-14T17:35:47.299Z,95050.23
2017-09-14T17:38:14.983Z,95047.47
2017-09-14T17:40:42.550Z,95056.53
2017-09-14T17:43:11.499Z,95054.95
2017-09-14T17:45:39.062Z,95057.05
2017-09-14T17:48:06.846Z,95065.96
2017-09-14T17:50:35.698Z,95060.96
2017-09-14T17:53:03.319Z,95064.19
2017-09-14T17:55:31.095Z,95065.25
2017-09-14T17:57:58.903Z,95071.14
2017-09-14T18:00:29.132Z,95082.06
2017-09-14T18:02:57.257Z,95078.91
2017-09-14T18:05:24.898Z,95075.08
2017-09-14T18:07:52.474Z,95072.59
2017-09-14T18:10:20.182Z,95079.77
2017-09-14T18:12:48.453Z,95082.78
2017-09-14T18:15:16.140Z,95086.88
2017-09-14T18:17:44.064Z,95088.86
2017-09-14T18:20:12.346Z,95094.30
2017-09-14T18:22:43.363Z,95093.52
2017-09-14T18:25:10.956Z,95101.13
2017-09-14T18:27:39.147Z,95094.06
2017-09-14T18:30:07.745Z,95103.61
2017-09-14T18:32:37.159Z,95092.52
2017-09-14T18:35:04.724Z,95102.92
2017-09-14T18:37:34.638Z,95102.06
2017-09-14T18:40:02.352Z,95108.58
2017-09-14T18:42:29.942Z,95109.28
2017-09-14T18:44:57.490Z,95110.60
2017-09-14T18:47:25.068Z,95109.54
2017-09-14T18:49:52.810Z,95107.20
2017-09-14T18:52:20.431Z,95106.92
2017-09-14T18:54:48.006Z,95106.26
2017-09-14T18:57:15.609Z,95115.20
2017-09-14T18:59:43.198Z,95112.70
2017-09-14T19:02:10.779Z,95113.98
2017-09-14T19:04:38.336Z,95120.03
2017-09-14T19:07:06.901Z,95115.96
2017-09-14T19:09:34.493Z,95122.41
2017-09-14T19:12:02.089Z,95119.97
2017-09-14T19:14:29.712Z,95113.60
2017-09-14T19:16:57.286Z,95122.31
2017-09-14T19:19:24.893Z,95124.25
2017-09-14T19:21:52.570Z,95119.53
2017-09-14T19:24:20.272Z,95116.52
2017-09-14T19:26:47.936Z,95121.86
2017-09-14T19:29:15.525Z,95119.80
2017-09-14T19:31:43.929Z,95113.30
2017-09-14T19:34:14.292Z,95123.29
2017-09-14T19:36:41.844Z,95124.84
2017-09-14T19:39:09.447Z,95128.33
2017-09-14T19:41:37.200Z,95125.48
2017-09-14T19:44:04.767Z,95128.88
2017-09-14T19:46:33.218Z,95136.25
2017-09-14T19:49:00.839Z,95139.74
2017-09-14T19:51:28.380Z,95136.73
2017-09-14T19:53:55.971Z,95136.09
2017-09-14T19:56:23.505Z,95130.56
2017-09-14T19:58:51.056Z,95137.59
2017-09-14T20:01:19.471Z,95133.77
2017-09-14T20:03:46.986Z,95129.17
2017-09-14T20:06:14.522Z,95133.27
2017-09-14T20:08:42.104Z,95136.66
2017-09-14T20:11:09.643Z,95135.23
2017-09-14T20:13:38.019Z,95133.51
2017-09-14T20:16:05.699Z,95136.08
2017-09-14T20:18:33.273Z,95141.66
2017-09-14T20:21:00.829Z,95147.65
2017-09-14T20:23:28.431Z,95154.53
2017-09-14T20:25:57.281Z,95149.09
2017-09-14T20:28:24.843Z,95146.83
2017-09-14T20:30:53.371Z,95150.53
2017-09-14T20:33:20.977Z,95149.80
2017-09-14T20:35:48.563Z,95150.92
2017-09-14T20:38:16.155Z,95157.50
2017-09-14T20:40:44.055Z,95154.81
2017-09-14T20:43:11.639Z,95150.06
2017-09-14T20:45:39.258Z,95152.69
2017-09-14T20:48:06.931Z,95156.70
2017-09-14T20:50:34.512Z,95149.20
2017-09-14T20:53:02.070Z,95161.23
2017-09-14T20:55:29.605Z,95147.75
2017-09-14T20:57:57.190Z,95151.31
2017-09-14T21:00:24.866Z,95157.56
2017-09-14T21:02:52.486Z,95157.59
2017-09-14T21:05:20.061Z,95149.61
2017-09-14T21:07:47.734Z,95148.55
2017-09-14T21:10:15.293Z,95158.86
2017-09-14T21:12:42.874Z,95155.39
2017-09-14T21:15:10.498Z,95154.30
2017-09-14T21:17:38.021Z,95152.89
2017-09-14T21:20:05.784Z,95148.88
2017-09-14T21:22:33.378Z,95151.56
2017-09-14T21:25:00.924Z,95141.86
2017-09-14T21:27:28.509Z,95135.80
2017-09-14T21:29:56.129Z,95143.63
2017-09-14T21:32:23.741Z,95147.23
2017-09-14T21:34:51.291Z,95141.59
2017-09-14T21:37:18.919Z,95135.56
2017-09-14T21:39:46.500Z,95136.77
2017-09-14T21:42:14.092Z,95138.78
2017-09-14T21:44:41.688Z,95134.73
2017-09-14T21:47:09.280Z,95133.52
2017-09-14T21:49:36.846Z,95131.50
2017-09-14T21:52:04.417Z,95131.95
2017-09-14T21:54:32.025Z,95131.16
2017-09-14T21:56:59.568Z,95135.91
2017-09-14T21:59:27.105Z,95138.09
2017-09-14T22:01:54.720Z,95138.62
2017-09-14T22:04:22.411Z,95145.28
2017-09-14T22:06:49.981Z,95142.99
2017-09-14T22:09:17.535Z,95139.26
2017-09-14T22:11:45.064Z,95142.56
2017-09-14T22:14:12.618Z,95144.98
2017-09-14T22:16:40.232Z,95152.19
2017-09-14T22:19:07.977Z,95148.05
2017-09-14T22:21:35.529Z,95146.34
2017-09-14T22:24:03.111Z,95150.86
2017-09-14T22:26:30.690Z,95159.56
2017-09-14T22:28:59.023Z,95149.58
2017-09-14T22:31:26.618Z,95152.44
2017-09-14T22:33:54.227Z,95140.63
2017-09-14T22:36:21.801Z,95147.78
2017-09-14T22:38:49.391Z,95156.56
2017-09-14T22:41:16.918Z,95151.84
2017-09-14T22:43:44.515Z,95153.34
2017-09-14T22:46:12.085Z,95159.08
2017-09-14T22:48:39.617Z,95159.47
2017-09-14T22:51:07.222Z,95157.39
2017-09-14T22:53:34.844Z,95155.16
2017-09-14T22:56:02.446Z,95161.37
2017-09-14T22:58:30.213Z,95157.00
2017-09-14T23:00:57.795Z,95153.80
2017-09-14T23:03:25.333Z,95154.25
2017-09-14T23:05:52.874Z,95156.83
2017-09-14T23:08:21.310Z,95162.44
2017-09-14T23:10:48.844Z,95162.05
2017-09-14T23:13:16.360Z,95156.72
2017-09-14T23:15:43.975Z,95156.58
2017-09-14T23:18:11.529Z,95159.25
2017-09-14T23:20:39.061Z,95158.61
2017-09-14T23:23:06.675Z,95161.73
2017-09-14T23:25:34.217Z,95165.49
2017-09-14T23:28:01.741Z,95160.12
2017-09-14T23:30:29.336Z,95158.76
2017-09-14T23:32:56.863Z,95160.66
2017-09-14T23:35:24.381Z,95167.79
2017-09-14T23:37:51.987Z,95165.69
2017-09-14T23:40:19.569Z,95163.06
2017-09-14T23:42:47.098Z,95165.47
2017-09-14T23:45:14.668Z,95160.91
2017-09-14T23:47:42.252Z,95168.25
2017-09-14T23:50:09.789Z,95165.02
2017-09-14T23:52:37.395Z,95164.44
2017-09-14T23:55:04.930Z,95158.57
2017-09-14T23:57:32.550Z,95158.83
